To NAV CANADA Home Page Login to a new session Search on AWWS site Feedback and Comments Disclaimer Vers la page française équivalente Tips FAQ What's new on the site To the Forecasts and Observations / NOTAM section To "File a Flight Plan" website Publications and other links Update of the User's profile FIC Telephone Numbers My Weather Data Folder Route Weather Data Regional Weather Data Local Weather Data To the Forecasts and Observations / NOTAM section
Request Generated 02/24/2017 at 03:39:33 UTC . Weather information available at that time is displayed.

METAR/TAF

LOURDES-DE-BLANC-SABLON/QC    

METAR CYBX 240300Z 19005KT 8SM -SN OVC003 M02/M03 A2971 RMK ST8
SLP065=
METAR CYBX 240200Z 22005KT 8SM -SN OVC004 M02/M03 A2973 RMK ST8
SLP072=
METAR CYBX 240100Z 25006KT 8SM -SN OVC004 M02/M03 A2975 RMK ST8
SLP079=

TAF CYBX 240138Z 2402/2414 24004KT P6SM -SN OVC004 TEMPO 2402/2405
3SM -SN SCT004 OVC020
FM240500 07010KT 3/4SM -SN VV004 TEMPO 2405/2409 21/2SM -SN
OVC010
FM240900 06020KT 1SM -SN BLSN OVC008 PROB40 2409/2414 3/4SM -SN
BLSN
RMK NXT FCST BY 240800Z=
Your time UTC time
Weather data provided by Environment Canada and NAV CANADA